Time;durP1;ratioP1;P1;durP2;ratioP2;P2;SDS_P1;SDS_P2;PMS_P1;PMS_P2;Temp;Humidity;BMP_temperature;BMP_pressure;BME280_temperature;BME280_humidity;BME280_pressure;Samples;Min_cycle;Max_cycle;Signal;HPM_P1;HPM_P2
2023/08/26 00:02:27;;;;;;;18.42;11.57;;;;;;;37.52;18.85;100541.53;5003439;28;20053;-76
2023/08/26 00:05:02;;;;;;;20.80;11.35;;;;;;;37.50;18.95;100537.22;5005192;28;20137;-76
2023/08/26 00:07:43;;;;;;;16.80;10.80;;;;;;;37.50;19.12;100538.09;5005015;28;20680;-75
2023/08/26 00:10:18;;;;;;;12.77;10.63;;;;;;;37.48;19.30;100533.81;5007648;28;20059;-76
2023/08/26 00:12:49;;;;;;;19.17;11.23;;;;;;;37.40;19.13;100534.47;5009066;28;20076;-75
2023/08/26 00:15:25;;;;;;;;;;;;;;;37.35;19.19;100544.81;5007721;28;20060;-77
2023/08/26 00:17:56;;;;;;;15.68;10.20;;;;;;;37.29;19.33;100545.34;5008963;28;19975;-74
2023/08/26 00:20:27;;;;;;;18.48;10.68;;;;;;;37.23;19.56;100541.34;4998866;28;20050;-75
2023/08/26 00:22:56;;;;;;;15.13;9.85;;;;;;;37.13;19.20;100545.81;5006591;28;20046;-76
2023/08/26 00:25:32;;;;;;;16.60;11.52;;;;;;;37.09;18.80;100544.38;5007599;28;20053;-76
2023/08/26 00:28:03;;;;;;;18.38;10.88;;;;;;;37.05;19.44;100542.91;5011288;28;20173;-75
2023/08/26 00:30:32;;;;;;;15.10;10.38;;;;;;;37.07;19.78;100551.75;5013540;28;20054;-76
2023/08/26 00:33:13;;;;;;;13.63;10.48;;;;;;;37.08;19.31;100548.06;5006292;28;20073;-77
2023/08/26 00:35:41;;;;;;;13.35;10.57;;;;;;;37.09;18.83;100549.78;5008049;28;20105;-76
2023/08/26 00:38:28;;;;;;;;;;;;;;;;;;;;;
2023/08/26 00:41:12;;;;;;;13.48;10.82;;;;;;;36.97;19.93;100548.94;5006184;28;20058;-73
2023/08/26 00:43:46;;;;;;;15.88;11.10;;;;;;;36.93;20.21;100561.00;5007634;28;20089;-76
2023/08/26 00:46:16;;;;;;;14.70;11.02;;;;;;;36.86;19.49;100557.94;4994941;28;20061;-78
2023/08/26 00:48:49;;;;;;;16.20;10.52;;;;;;;36.81;20.30;100562.88;4975833;28;20086;-74
2023/08/26 00:51:23;;;;;;;14.32;10.88;;;;;;;36.67;19.69;100555.94;5002410;28;20579;-75
2023/08/26 00:53:53;;;;;;;14.57;10.10;;;;;;;36.58;20.60;100556.66;5000953;28;20050;-75
2023/08/26 00:56:22;;;;;;;13.63;9.95;;;;;;;36.52;20.56;100567.13;4997438;28;20139;-76
2023/08/26 00:58:53;;;;;;;14.10;9.98;;;;;;;36.42;20.30;100561.63;5007613;28;20041;-77
2023/08/26 01:01:27;;;;;;;13.52;10.10;;;;;;;36.34;20.81;100566.81;5005217;28;20037;-76
2023/08/26 01:03:57;;;;;;;14.00;10.93;;;;;;;36.28;21.07;100568.16;5005857;28;20045;-78
2023/08/26 01:06:29;;;;;;;12.43;10.20;;;;;;;36.21;20.83;100567.78;5004235;28;20058;-80
2023/08/26 01:09:07;;;;;;;14.52;9.85;;;;;;;36.15;20.02;100564.72;5006582;28;20075;-77
2023/08/26 01:11:46;;;;;;;14.55;9.23;;;;;;;36.06;19.65;100569.88;5006371;28;20049;-78
2023/08/26 01:14:24;;;;;;;12.27;9.25;;;;;;;35.96;19.59;100566.19;5004129;28;20069;-78
2023/08/26 01:16:56;;;;;;;11.05;9.23;;;;;;;35.88;19.53;100574.03;5009189;28;20057;-78
2023/08/26 01:19:33;;;;;;;14.05;9.90;;;;;;;35.81;20.09;100572.81;5002296;28;20080;-78
2023/08/26 01:22:14;;;;;;;12.05;9.50;;;;;;;35.72;20.07;100573.56;5001205;28;20060;-79
2023/08/26 01:24:45;;;;;;;17.53;10.17;;;;;;;35.63;20.17;100567.91;5004849;28;20048;-79
2023/08/26 01:27:16;;;;;;;12.95;9.48;;;;;;;35.57;21.65;100565.66;5008178;28;20559;-78
2023/08/26 01:29:54;;;;;;;11.70;8.80;;;;;;;35.45;21.12;100569.34;5003090;28;20100;-78
2023/08/26 01:32:50;;;;;;;10.93;9.02;;;;;;;35.34;20.60;100563.94;5002056;28;20135;-79
2023/08/26 01:38:18;;;;;;;13.82;9.02;;;;;;;35.21;20.09;100564.88;4962963;28;20512;-78
2023/08/26 01:41:16;;;;;;;11.63;9.25;;;;;;;35.15;21.18;100559.13;5001632;28;20122;-79
2023/08/26 01:47:08;;;;;;;12.02;8.88;;;;;;;34.89;21.28;100567.31;4960863;28;20061;-80
2023/08/26 01:49:41;;;;;;;9.82;8.32;;;;;;;34.77;20.69;100561.06;4996968;28;20147;-77
2023/08/26 01:52:30;;;;;;;13.43;8.75;;;;;;;34.73;21.50;100569.47;5005273;28;20061;-77
2023/08/26 01:55:01;;;;;;;12.70;7.63;;;;;;;34.70;26.10;100573.19;5005546;28;20066;-74
2023/08/26 01:57:40;;;;;;;12.63;6.85;;;;;;;34.55;29.04;100563.59;4997448;28;20049;-73
2023/08/26 02:00:10;;;;;;;10.75;6.97;;;;;;;34.40;28.90;100563.72;5008032;28;20417;-76
2023/08/26 02:02:39;;;;;;;10.82;6.63;;;;;;;34.27;29.02;100562.06;4998899;28;20057;-75
2023/08/26 02:05:09;;;;;;;18.25;8.15;;;;;;;34.15;29.68;100563.81;5004358;28;20049;-74
2023/08/26 02:07:38;;;;;;;11.38;6.75;;;;;;;33.94;29.96;100571.56;5007764;28;20045;-75
2023/08/26 02:10:07;;;;;;;14.63;7.65;;;;;;;33.78;30.52;100567.28;5005160;28;20136;-73
2023/08/26 02:12:37;;;;;;;11.48;6.82;;;;;;;33.57;30.36;100568.78;5005288;28;20467;-72
2023/08/26 02:15:13;;;;;;;11.80;7.32;;;;;;;33.29;30.66;100576.06;5006435;28;20534;-73
2023/08/26 02:17:42;;;;;;;19.63;7.95;;;;;;;33.05;31.11;100567.84;5004020;28;20487;-74
2023/08/26 02:20:11;;;;;;;14.23;7.43;;;;;;;32.91;31.17;100575.94;5004092;28;20101;-76
2023/08/26 02:22:40;;;;;;;19.67;7.57;;;;;;;32.76;31.96;100576.00;5004037;28;20054;-75
2023/08/26 02:25:09;;;;;;;16.00;8.07;;;;;;;32.57;31.75;100571.97;4999627;28;20145;-76
2023/08/26 02:27:43;;;;;;;11.90;7.80;;;;;;;32.40;31.74;100575.72;5000885;28;20050;-75
2023/08/26 02:30:13;;;;;;;14.35;7.35;;;;;;;32.26;32.14;100580.13;5007852;28;20447;-74
2023/08/26 02:32:42;;;;;;;14.95;7.70;;;;;;;32.03;33.58;100583.44;5000251;28;20511;-75
2023/08/26 02:35:10;;;;;;;12.63;7.47;;;;;;;31.90;33.54;100585.97;4995308;28;20504;-74
2023/08/26 02:37:42;;;;;;;11.93;7.78;;;;;;;31.69;33.86;100597.03;5002945;28;20056;-75
2023/08/26 02:40:11;;;;;;;;;;;;;;;31.46;34.46;100594.91;5003678;28;20185;-74
2023/08/26 02:42:41;;;;;;;15.80;8.00;;;;;;;31.24;34.52;100595.31;5004017;28;19971;-75
2023/08/26 02:45:10;;;;;;;11.35;8.10;;;;;;;31.07;34.58;100602.50;5000208;28;20054;-76
2023/08/26 02:47:47;;;;;;;11.82;7.10;;;;;;;31.00;35.60;100603.81;5001969;28;20057;-75
2023/08/26 02:50:16;;;;;;;14.73;7.50;;;;;;;30.92;35.31;100611.41;5003034;28;20077;-78
2023/08/26 02:52:44;;;;;;;13.25;7.50;;;;;;;30.81;35.18;100608.47;5006533;28;20054;-76
2023/08/26 02:55:13;;;;;;;18.65;7.82;;;;;;;30.69;35.35;100621.59;5001444;28;20054;-75
2023/08/26 02:57:46;;;;;;;20.60;9.02;;;;;;;30.53;35.31;100622.53;5001232;28;20686;-77
2023/08/26 03:00:15;;;;;;;13.50;8.25;;;;;;;30.32;36.28;100632.59;5011612;28;20104;-77
2023/08/26 03:02:44;;;;;;;16.35;8.52;;;;;;;30.12;36.44;100634.50;5002761;28;20082;-78
2023/08/26 03:05:12;;;;;;;15.25;7.85;;;;;;;29.99;36.45;100630.78;5005264;28;20065;-79
2023/08/26 03:07:41;;;;;;;16.63;7.95;;;;;;;29.92;37.14;100634.72;5012654;28;20057;-77
2023/08/26 03:10:13;;;;;;;13.48;8.25;;;;;;;29.84;37.85;100641.31;5010412;28;20104;-76
2023/08/26 03:12:43;;;;;;;12.20;8.05;;;;;;;29.73;37.66;100633.00;5012383;28;20404;-75
2023/08/26 03:15:12;;;;;;;16.00;7.97;;;;;;;29.67;38.04;100649.31;5014989;28;20144;-79
2023/08/26 03:17:40;;;;;;;11.80;8.15;;;;;;;29.63;38.22;100645.06;5021689;28;20042;-76
2023/08/26 03:20:16;;;;;;;12.98;7.80;;;;;;;29.58;38.09;100649.78;5023843;28;20044;-78
2023/08/26 03:22:45;;;;;;;14.52;7.68;;;;;;;29.50;37.98;100643.97;5022689;28;20740;-78
2023/08/26 03:25:14;;;;;;;16.65;8.68;;;;;;;29.37;38.49;100649.94;5005201;28;20077;-76
2023/08/26 03:27:44;;;;;;;16.02;8.32;;;;;;;29.27;37.85;100662.00;5014797;28;20543;-78
2023/08/26 03:30:15;;;;;;;15.15;8.77;;;;;;;29.23;38.38;100663.13;5015050;28;20092;-78
2023/08/26 03:32:44;;;;;;;16.02;8.48;;;;;;;29.14;38.31;100663.56;5008787;28;20085;-76
2023/08/26 03:35:12;;;;;;;14.68;8.55;;;;;;;29.03;38.41;100662.25;5004543;28;20766;-78
2023/08/26 03:37:41;;;;;;;14.15;8.75;;;;;;;28.98;38.71;100661.63;5010882;28;20056;-80
2023/08/26 03:40:22;;;;;;;16.75;9.15;;;;;;;28.86;38.54;100670.19;5010906;28;20062;-78
2023/08/26 03:42:53;;;;;;;20.63;8.90;;;;;;;28.74;38.83;100665.44;5006176;28;20057;-77
2023/08/26 03:45:21;;;;;;;12.80;8.88;;;;;;;28.69;39.21;100678.13;5007866;28;20045;-76
2023/08/26 03:47:50;;;;;;;11.88;8.32;;;;;;;28.58;40.24;100675.97;5011036;28;20042;-77
2023/08/26 03:50:26;;;;;;;15.52;9.05;;;;;;;28.45;40.27;100682.75;5007575;28;20504;-76
2023/08/26 03:52:54;;;;;;;13.10;8.75;;;;;;;28.38;40.06;100687.50;5010458;28;20798;-77
2023/08/26 03:55:23;;;;;;;18.23;9.15;;;;;;;28.27;39.96;100689.81;5004623;28;20061;-76
2023/08/26 03:57:53;;;;;;;20.95;10.02;;;;;;;28.17;39.74;100695.50;5006603;28;20054;-80
2023/08/26 04:00:24;;;;;;;18.65;9.75;;;;;;;28.12;40.27;100700.19;5005729;28;20050;-79
2023/08/26 04:02:53;;;;;;;18.13;9.90;;;;;;;28.04;40.45;100702.34;5010355;28;20046;-83
2023/08/26 04:05:22;;;;;;;17.83;9.18;;;;;;;27.97;40.48;100698.22;5011213;28;20799;-80
2023/08/26 04:07:51;;;;;;;20.80;10.07;;;;;;;27.87;40.65;100699.53;5009760;28;20570;-81
2023/08/26 04:10:22;;;;;;;17.30;9.45;;;;;;;27.77;40.74;100705.22;5008821;28;20404;-80
2023/08/26 04:12:52;;;;;;;17.30;9.27;;;;;;;27.75;41.79;100706.22;5012629;28;20053;-81
2023/08/26 04:15:21;;;;;;;18.60;8.35;;;;;;;27.74;41.67;100700.03;5005067;28;20124;-80
2023/08/26 04:17:49;;;;;;;18.05;9.63;;;;;;;27.71;41.51;100699.28;5001997;28;20093;-81
2023/08/26 04:20:18;;;;;;;16.30;8.52;;;;;;;27.64;41.65;100706.66;4999302;28;20070;-79
2023/08/26 04:22:50;;;;;;;15.77;8.82;;;;;;;27.58;41.81;100704.28;5003383;28;20096;-81
2023/08/26 04:25:18;;;;;;;13.98;8.88;;;;;;;27.49;42.04;100704.69;5001690;28;20046;-79
2023/08/26 04:27:55;;;;;;;16.30;8.98;;;;;;;27.40;42.07;100707.69;5006495;28;20045;-80
2023/08/26 04:30:32;;;;;;;19.55;9.20;;;;;;;27.31;41.99;100709.81;5006735;28;20498;-83
2023/08/26 04:33:11;;;;;;;15.77;8.88;;;;;;;27.28;42.53;100712.59;5009170;28;20065;-81
2023/08/26 04:35:45;;;;;;;14.93;9.18;;;;;;;27.23;42.80;100708.38;5007895;28;20097;-84
2023/08/26 04:38:14;;;;;;;13.93;8.88;;;;;;;27.17;43.31;100714.78;5003758;28;20966;-79
2023/08/26 04:40:43;;;;;;;18.42;9.55;;;;;;;27.09;42.90;100716.88;5007621;28;20637;-83
2023/08/26 04:43:12;;;;;;;18.27;9.38;;;;;;;27.00;43.06;100717.25;5010142;28;20049;-80
2023/08/26 04:45:48;;;;;;;15.32;8.73;;;;;;;26.92;43.60;100721.06;5011168;28;20057;-79
2023/08/26 04:48:16;;;;;;;18.15;9.25;;;;;;;26.84;43.79;100722.28;5016624;28;20038;-80
2023/08/26 04:50:46;;;;;;;17.00;9.98;;;;;;;26.73;44.61;100731.53;5004803;28;20491;-82
2023/08/26 04:53:14;;;;;;;18.00;9.18;;;;;;;26.64;44.81;100729.22;5011684;28;20113;-82
2023/08/26 04:55:44;;;;;;;20.70;9.57;;;;;;;26.54;44.41;100727.78;5005146;28;20057;-80
2023/08/26 04:58:12;;;;;;;14.32;8.43;;;;;;;26.45;44.57;100731.66;5010220;28;20049;-83
2023/08/26 05:00:45;;;;;;;19.20;9.40;;;;;;;26.32;44.94;100733.91;5012558;28;20046;-84
2023/08/26 05:03:13;;;;;;;15.68;9.20;;;;;;;26.21;45.15;100729.91;5011668;28;20056;-79
2023/08/26 05:05:42;;;;;;;13.60;9.10;;;;;;;26.11;44.83;100734.66;5023707;28;20085;-82
2023/08/26 05:08:16;;;;;;;17.25;9.80;;;;;;;26.03;45.08;100740.25;5019559;28;20042;-81
2023/08/26 05:10:45;;;;;;;13.10;8.90;;;;;;;25.94;45.44;100740.56;5024194;28;20052;-83
2023/08/26 05:13:14;;;;;;;24.30;10.05;;;;;;;25.86;45.68;100747.88;5023628;28;20065;-84
2023/08/26 05:15:44;;;;;;;20.00;10.27;;;;;;;25.79;45.84;100751.66;5023915;28;20496;-83
2023/08/26 05:18:18;;;;;;;20.67;9.43;;;;;;;25.71;45.57;100747.47;5018824;28;20049;-82
2023/08/26 05:20:54;;;;;;;19.25;10.05;;;;;;;25.62;46.31;100755.72;5007871;28;20456;-82
2023/08/26 05:23:23;;;;;;;21.02;9.45;;;;;;;25.45;46.34;100747.50;5010673;28;20105;-82
2023/08/26 05:26:02;;;;;;;17.13;9.20;;;;;;;25.27;47.01;100757.75;5008253;28;20073;-81
2023/08/26 05:28:30;;;;;;;20.90;9.93;;;;;;;25.05;47.38;100764.56;5006603;28;20508;-81
2023/08/26 05:31:00;;;;;;;17.20;9.43;;;;;;;24.94;48.16;100766.69;5004550;28;20100;-82
2023/08/26 05:33:29;;;;;;;16.90;9.50;;;;;;;24.90;48.19;100772.97;5010605;28;20066;-81
2023/08/26 05:36:00;;;;;;;18.35;9.50;;;;;;;24.84;48.12;100763.44;5006038;28;20499;-83
2023/08/26 05:38:28;;;;;;;22.40;9.32;;;;;;;24.81;48.35;100771.47;5007523;28;20092;-83
2023/08/26 05:40:57;;;;;;;18.38;9.48;;;;;;;24.76;48.81;100773.38;5011379;28;20111;-84
2023/08/26 05:43:29;;;;;;;19.73;10.43;;;;;;;24.67;48.93;100775.41;5009233;28;20041;-80
2023/08/26 05:46:08;;;;;;;19.20;9.75;;;;;;;24.57;48.15;100770.41;5004964;28;20050;-83
2023/08/26 05:48:37;;;;;;;16.48;9.55;;;;;;;24.50;48.59;100776.78;5014600;28;20105;-85
2023/08/26 05:51:06;;;;;;;20.45;10.18;;;;;;;24.41;48.62;100784.00;5016760;28;20054;-84
2023/08/26 05:53:54;;;;;;;22.67;9.45;;;;;;;24.33;48.74;100786.00;5023292;28;20038;-83
2023/08/26 05:56:24;;;;;;;18.30;10.18;;;;;;;24.31;49.08;100787.81;5013299;28;20053;-84
2023/08/26 05:58:53;;;;;;;16.10;9.77;;;;;;;24.29;49.10;100783.50;5009988;28;20057;-83
2023/08/26 06:01:30;;;;;;;17.98;10.23;;;;;;;24.22;49.09;100791.56;5013470;28;20046;-83
2023/08/26 06:03:59;;;;;;;17.90;9.43;;;;;;;24.21;49.52;100787.22;5013635;28;20050;-83
2023/08/26 06:06:28;;;;;;;17.98;10.32;;;;;;;24.14;49.34;100782.09;5011957;28;20042;-83
2023/08/26 06:09:04;;;;;;;16.05;9.13;;;;;;;24.00;50.11;100793.03;5012377;28;20060;-82
2023/08/26 06:11:33;;;;;;;24.80;10.05;;;;;;;23.89;50.86;100788.03;5020517;28;20049;-84
2023/08/26 06:14:02;;;;;;;14.95;9.80;;;;;;;23.79;51.26;100794.44;5018325;28;20508;-83
2023/08/26 06:16:32;;;;;;;17.42;10.30;;;;;;;23.71;51.58;100791.09;5017976;28;20213;-82
2023/08/26 06:19:00;;;;;;;17.00;9.35;;;;;;;23.67;51.90;100792.94;5015395;28;20057;-82
2023/08/26 06:21:29;;;;;;;16.35;9.73;;;;;;;23.65;51.82;100793.88;5015477;28;20129;-83
2023/08/26 06:23:58;;;;;;;14.93;9.98;;;;;;;23.68;51.33;100809.66;5021862;28;20051;-83
2023/08/26 06:26:27;;;;;;;16.85;9.23;;;;;;;23.69;52.03;100800.84;5027205;28;20025;-84
2023/08/26 06:28:55;;;;;;;19.65;9.75;;;;;;;23.58;51.75;100801.94;5030083;28;20046;-84
2023/08/26 06:31:26;;;;;;;14.23;8.82;;;;;;;23.43;52.09;100799.66;5025333;28;20057;-83
2023/08/26 06:33:58;;;;;;;15.90;8.98;;;;;;;23.36;52.46;100801.56;5022765;28;20034;-84
2023/08/26 06:36:27;;;;;;;14.27;9.50;;;;;;;23.33;52.60;100795.50;5034702;28;20113;-87
2023/08/26 06:38:55;;;;;;;18.38;10.05;;;;;;;23.19;53.25;100799.31;5007400;28;20504;-85
2023/08/26 06:41:33;;;;;;;16.30;9.45;;;;;;;23.09;53.44;100812.75;5009393;28;20064;-83
2023/08/26 06:44:02;;;;;;;13.80;9.02;;;;;;;23.02;53.25;100811.13;5008804;28;20051;-84
2023/08/26 06:46:31;;;;;;;14.95;9.80;;;;;;;22.99;54.05;100818.22;5009393;28;20133;-83
2023/08/26 06:49:02;;;;;;;14.82;9.30;;;;;;;22.97;53.91;100814.69;5009826;28;20120;-81
2023/08/26 06:51:35;;;;;;;12.80;9.63;;;;;;;22.89;54.29;100821.06;5012250;28;20559;-85
2023/08/26 06:54:04;;;;;;;12.73;8.70;;;;;;;22.79;54.26;100821.25;5007761;28;20526;-83
2023/08/26 06:56:32;;;;;;;15.20;9.45;;;;;;;22.73;54.98;100826.63;5009733;28;20052;-83
2023/08/26 06:59:01;;;;;;;15.70;9.38;;;;;;;22.62;55.78;100827.75;5008109;28;20046;-83
2023/08/26 07:01:34;;;;;;;14.40;9.13;;;;;;;22.52;55.48;100833.19;5008395;28;20058;-84
2023/08/26 07:04:07;;;;;;;15.27;9.90;;;;;;;22.44;55.72;100829.81;5009465;28;20078;-84
2023/08/26 07:06:36;;;;;;;14.75;9.15;;;;;;;22.43;55.49;100835.13;5015263;28;20048;-85
2023/08/26 07:09:06;;;;;;;14.57;8.98;;;;;;;22.43;55.65;100830.72;5009158;28;20145;-84
2023/08/26 07:11:40;;;;;;;17.02;10.07;;;;;;;22.40;55.89;100840.44;5019521;28;20041;-83
2023/08/26 07:14:12;;;;;;;14.52;8.85;;;;;;;22.34;56.17;100844.06;5027014;28;20050;-81
2023/08/26 07:16:40;;;;;;;15.73;9.02;;;;;;;22.33;56.36;100842.31;5014486;28;20458;-83
2023/08/26 07:19:11;;;;;;;13.75;9.48;;;;;;;22.29;56.36;100841.53;5013812;28;20101;-84
2023/08/26 07:21:47;;;;;;;16.70;9.25;;;;;;;22.31;57.40;100850.28;5007451;28;20619;-84
2023/08/26 07:24:16;;;;;;;15.18;9.77;;;;;;;22.22;57.17;100847.81;5017950;28;20186;-84
2023/08/26 07:26:45;;;;;;;15.00;9.32;;;;;;;22.12;57.75;100846.16;5007676;28;20045;-84
2023/08/26 07:29:16;;;;;;;15.52;9.50;;;;;;;22.07;57.66;100858.56;5009821;28;20060;-83
2023/08/26 07:31:46;;;;;;;16.77;8.93;;;;;;;22.06;57.92;100851.53;5008550;28;20141;-84
2023/08/26 07:34:17;;;;;;;14.60;9.27;;;;;;;22.02;58.45;100849.88;5017049;28;20570;-85
2023/08/26 07:36:46;;;;;;;15.32;9.45;;;;;;;21.96;58.38;100856.94;5013320;28;20054;-84
2023/08/26 07:39:14;;;;;;;16.10;9.35;;;;;;;21.93;58.34;100851.75;5012465;28;20119;-85
2023/08/26 07:41:48;;;;;;;15.55;9.32;;;;;;;21.92;58.67;100854.38;5014524;28;20091;-83
2023/08/26 07:44:16;;;;;;;13.95;9.23;;;;;;;21.86;58.76;100844.84;5011200;28;20053;-84
2023/08/26 07:46:45;;;;;;;14.38;7.97;;;;;;;21.87;58.42;100851.81;5015454;28;20052;-84
2023/08/26 07:49:13;;;;;;;15.38;9.27;;;;;;;21.85;58.59;100853.63;5015856;28;20420;-82
2023/08/26 07:51:46;;;;;;;14.85;9.38;;;;;;;21.84;58.81;100859.78;5017558;28;20079;-84
2023/08/26 07:54:15;;;;;;;15.45;9.48;;;;;;;21.83;58.85;100860.69;5010691;28;20054;-85
2023/08/26 07:56:44;;;;;;;13.48;9.20;;;;;;;21.82;58.74;100855.44;5014455;28;20042;-83
2023/08/26 07:59:12;;;;;;;14.13;9.07;;;;;;;21.80;58.79;100867.75;5014793;28;20109;-84
2023/08/26 08:01:53;;;;;;;12.73;8.45;;;;;;;21.77;58.98;100860.78;5017445;28;20053;-85
2023/08/26 08:04:22;;;;;;;13.15;8.98;;;;;;;21.69;59.13;100860.91;5012495;28;20061;-84
2023/08/26 08:06:52;;;;;;;17.45;9.70;;;;;;;21.67;59.21;100867.06;5021479;28;20053;-85
2023/08/26 08:09:24;;;;;;;14.30;9.23;;;;;;;21.60;59.74;100865.41;5015347;28;20042;-84
2023/08/26 08:11:55;;;;;;;16.45;9.48;;;;;;;21.49;59.91;100863.81;5016613;28;20042;-84
2023/08/26 08:14:24;;;;;;;14.33;9.20;;;;;;;21.46;60.32;100871.75;5026347;28;20050;-83
2023/08/26 08:16:52;;;;;;;16.17;9.55;;;;;;;21.40;60.91;100870.94;5018144;28;20046;-83
2023/08/26 08:19:21;;;;;;;12.57;9.40;;;;;;;21.35;61.18;100865.72;5010839;28;20050;-85
2023/08/26 08:21:55;;;;;;;14.65;9.75;;;;;;;21.34;61.22;100875.38;5015233;28;20089;-83
2023/08/26 08:24:24;;;;;;;14.50;9.15;;;;;;;21.30;61.54;100876.31;4998755;28;20057;-83
2023/08/26 08:26:53;;;;;;;14.25;9.68;;;;;;;21.23;61.45;100872.00;5008516;28;20049;-84
2023/08/26 08:29:21;;;;;;;17.63;9.73;;;;;;;21.24;61.88;100878.16;5013461;28;20081;-82
2023/08/26 08:31:59;;;;;;;13.20;8.73;;;;;;;21.23;61.77;100871.13;5017220;28;20038;-82
2023/08/26 08:34:27;;;;;;;16.45;9.88;;;;;;;21.20;61.80;100871.19;5015607;28;20053;-83
2023/08/26 08:36:57;;;;;;;15.40;8.80;;;;;;;21.17;62.18;100872.09;5007975;28;20123;-83
2023/08/26 08:39:31;;;;;;;16.00;9.75;;;;;;;21.12;62.58;100880.06;5015108;28;20050;-84
2023/08/26 08:42:06;;;;;;;17.23;9.82;;;;;;;21.05;62.98;100882.75;5019282;28;20145;-83
2023/08/26 08:44:37;;;;;;;13.77;9.40;;;;;;;20.97;63.49;100880.22;5009920;28;20073;-83
2023/08/26 08:47:06;;;;;;;16.02;9.80;;;;;;;20.91;64.31;100883.81;5011138;28;20527;-83
2023/08/26 08:49:44;;;;;;;12.85;9.35;;;;;;;20.86;63.96;100872.44;5022176;28;20045;-81
2023/08/26 08:52:15;;;;;;;16.10;9.32;;;;;;;20.86;64.49;100872.44;5015996;28;20057;-82
2023/08/26 08:54:45;;;;;;;14.82;9.50;;;;;;;20.84;65.48;100870.72;5013289;28;20049;-83
2023/08/26 08:57:25;;;;;;;14.35;8.77;;;;;;;20.83;65.61;100869.00;5014621;28;20136;-83
2023/08/26 08:59:54;;;;;;;16.52;10.32;;;;;;;20.85;65.45;100877.75;5012091;28;20049;-84
2023/08/26 09:02:23;;;;;;;16.58;9.98;;;;;;;20.85;65.75;100869.84;5012658;28;20046;-85
2023/08/26 09:04:54;;;;;;;14.88;9.90;;;;;;;20.84;65.58;100868.09;5017983;28;20052;-83
2023/08/26 09:07:27;;;;;;;17.92;10.27;;;;;;;20.78;65.59;100862.91;5011297;28;20054;-83
2023/08/26 09:09:58;;;;;;;16.23;10.23;;;;;;;20.69;66.54;100859.50;5010159;28;20064;-82
2023/08/26 09:12:27;;;;;;;17.58;10.10;;;;;;;20.59;66.89;100868.38;5006541;28;20045;-83
2023/08/26 09:15:05;;;;;;;17.70;9.52;;;;;;;20.46;68.12;100864.94;5016638;28;20443;-82
2023/08/26 09:17:34;;;;;;;19.13;9.88;;;;;;;20.35;69.03;100863.31;5012592;28;20061;-80
2023/08/26 09:20:05;;;;;;;20.92;9.98;;;;;;;20.24;69.08;100868.66;5016545;28;20061;-83
2023/08/26 09:22:42;;;;;;;14.73;9.40;;;;;;;20.16;69.80;100859.94;5010664;28;20042;-81
2023/08/26 09:25:11;;;;;;;16.92;7.75;;;;;;;20.12;69.16;100872.25;5005379;28;20063;-82
2023/08/26 09:27:44;;;;;;;16.48;7.82;;;;;;;20.13;70.10;100868.72;5015171;28;20049;-83
2023/08/26 09:30:21;;;;;;;15.65;7.70;;;;;;;20.10;69.42;100868.75;5025347;28;20038;-82
2023/08/26 09:32:52;;;;;;;12.15;6.18;;;;;;;20.09;69.30;100861.78;5007616;28;20086;-84
2023/08/26 09:35:20;;;;;;;13.13;6.93;;;;;;;20.10;69.18;100853.00;5012321;28;20497;-85
2023/08/26 09:38:04;;;;;;;13.25;7.18;;;;;;;20.08;69.08;100858.25;5013471;28;20038;-84
2023/08/26 09:40:34;;;;;;;10.50;6.40;;;;;;;20.07;68.66;100859.16;5012473;28;20050;-82
2023/08/26 09:43:06;;;;;;;18.00;9.30;;;;;;;20.03;69.57;100862.69;5011874;28;20050;-81
2023/08/26 09:45:38;;;;;;;11.82;7.10;;;;;;;19.93;70.04;100865.38;5005958;28;20042;-83
2023/08/26 09:48:09;;;;;;;15.40;7.30;;;;;;;19.87;69.84;100861.91;5011245;28;20669;-84
2023/08/26 09:50:38;;;;;;;12.70;6.63;;;;;;;19.88;69.88;100868.94;5011169;28;20057;-84
2023/08/26 09:53:08;;;;;;;14.70;7.03;;;;;;;19.88;69.75;100863.69;5005751;28;20046;-84
2023/08/26 09:55:47;;;;;;;;;;;;;;;;;;;;;
2023/08/26 09:58:16;;;;;;;11.88;6.63;;;;;;;19.90;69.52;100860.16;5005397;28;20431;-83
2023/08/26 10:00:48;;;;;;;12.55;6.95;;;;;;;19.88;69.39;100865.41;5008416;28;20104;-83
2023/08/26 10:03:25;;;;;;;12.23;6.63;;;;;;;19.86;69.25;100865.44;5009047;28;20121;-82
2023/08/26 10:05:55;;;;;;;11.88;6.30;;;;;;;19.86;69.55;100867.22;5011368;28;20511;-84
2023/08/26 10:08:33;;;;;;;17.20;7.43;;;;;;;19.79;70.05;100858.50;5006206;28;20128;-83
2023/08/26 10:11:12;;;;;;;16.17;8.48;;;;;;;19.73;70.64;100861.16;5005283;28;20060;-82
2023/08/26 10:13:44;;;;;;;12.27;8.07;;;;;;;19.61;71.73;100869.09;5009980;28;20058;-83
2023/08/26 10:16:18;;;;;;;16.35;8.02;;;;;;;19.53;71.12;100876.13;5007375;28;22024;-83
2023/08/26 10:18:50;;;;;;;12.65;6.88;;;;;;;19.54;71.43;100869.97;5015248;28;20049;-83
2023/08/26 10:21:19;;;;;;;13.13;9.07;;;;;;;19.54;71.48;100869.97;5016951;28;20120;-84
2023/08/26 10:23:50;;;;;;;13.05;6.60;;;;;;;19.52;72.23;100871.75;5013962;28;20049;-84
2023/08/26 10:26:19;;;;;;;13.77;6.65;;;;;;;19.48;72.05;100872.66;5017723;28;20050;-84
2023/08/26 10:28:52;;;;;;;15.02;7.20;;;;;;;19.43;72.51;100870.91;5017831;28;20064;-83
2023/08/26 10:31:19;;;;;;;;;;;;;;;19.44;71.75;100872.66;5010621;28;20057;-84
2023/08/26 10:34:07;;;;;;;10.80;6.30;;;;;;;19.44;71.92;100877.03;5015824;28;19926;-82
2023/08/26 10:36:37;;;;;;;17.98;7.07;;;;;;;19.43;71.53;100870.06;5020359;28;20065;-83
2023/08/26 10:39:16;;;;;;;12.55;7.25;;;;;;;19.39;71.82;100869.19;5020488;28;20081;-82
2023/08/26 10:42:12;;;;;;;12.23;7.30;;;;;;;19.35;72.25;100869.19;5020590;28;20058;-83
2023/08/26 10:44:46;;;;;;;14.70;6.95;;;;;;;19.25;73.07;100864.00;5022524;28;20267;-80
2023/08/26 10:47:44;;;;;;;13.13;6.03;;;;;;;19.22;73.50;100866.66;5017699;28;20053;-83
2023/08/26 10:50:20;;;;;;;17.92;6.78;;;;;;;19.20;74.51;100864.91;5016529;28;20046;-82
2023/08/26 10:52:53;;;;;;;16.92;7.45;;;;;;;19.07;75.03;100855.34;5014945;28;20060;-82
2023/08/26 10:55:27;;;;;;;16.45;7.75;;;;;;;19.11;74.09;100863.19;5015076;28;20053;-83
2023/08/26 10:58:12;;;;;;;12.88;5.55;;;;;;;19.08;74.25;100864.94;5013782;28;20049;-82
2023/08/26 11:00:51;;;;;;;14.82;7.90;;;;;;;19.02;74.85;100861.47;5016992;28;20632;-82
2023/08/26 11:03:22;;;;;;;13.93;6.72;;;;;;;19.04;74.92;100861.47;5013072;28;20084;-83
2023/08/26 11:06:04;;;;;;;17.95;7.85;;;;;;;19.05;74.83;100863.22;5015008;28;20104;-82
2023/08/26 11:08:33;;;;;;;15.52;8.35;;;;;;;19.03;74.71;100855.38;5012743;28;20046;-83
2023/08/26 11:11:04;;;;;;;12.82;6.63;;;;;;;19.04;74.91;100867.59;5013599;28;20030;-83
2023/08/26 11:13:33;;;;;;;10.45;6.78;;;;;;;19.02;75.18;100863.22;5012975;28;20137;-83
2023/08/26 11:16:03;;;;;;;10.98;6.22;;;;;;;18.98;74.93;100859.72;5012192;28;20054;-83
2023/08/26 11:18:33;;;;;;;13.45;7.47;;;;;;;18.93;74.42;100860.63;5017251;28;20133;-82
2023/08/26 11:21:06;;;;;;;15.43;7.38;;;;;;;18.88;75.14;100865.91;5008259;28;20061;-83
2023/08/26 11:23:34;;;;;;;16.13;7.70;;;;;;;18.80;75.54;100862.41;5011654;28;20061;-82
2023/08/26 11:26:08;;;;;;;13.70;6.57;;;;;;;18.78;76.02;100866.78;5014811;28;20056;-80
2023/08/26 11:28:37;;;;;;;15.70;6.82;;;;;;;18.75;75.80;100875.50;5012439;28;20141;-82
2023/08/26 11:31:05;;;;;;;20.40;6.85;;;;;;;18.68;76.14;100867.66;5011108;28;20600;-83
2023/08/26 11:33:34;;;;;;;10.55;6.80;;;;;;;18.74;76.18;100868.53;5010166;28;20100;-81
2023/08/26 11:36:11;;;;;;;14.77;6.65;;;;;;;18.76;75.89;100866.78;5016328;28;20049;-84
2023/08/26 11:38:40;;;;;;;16.13;7.90;;;;;;;18.76;75.88;100863.25;5007715;28;20130;-83
2023/08/26 11:41:11;;;;;;;16.67;7.57;;;;;;;18.73;75.49;100866.75;5009382;28;20054;-84
2023/08/26 11:43:40;;;;;;;15.23;7.57;;;;;;;18.72;76.22;100869.41;5010464;28;20050;-83
2023/08/26 11:46:10;;;;;;;15.30;7.38;;;;;;;18.71;76.21;100878.13;5011713;28;20112;-83
2023/08/26 11:48:39;;;;;;;12.10;7.07;;;;;;;18.69;76.54;100883.41;5011518;28;20042;-83